KDRT/DRT METAR and TAF weather

Enter ICAO airport designator
Station Type Date Time Source
KDRT METAR 2022/05/24 11:53 UTC NOAA

KDRT 241153Z AUTO 11006KT 10SM CLR 19/18 A2973 RMK AO2 SLP060 70002 T01890178 10206 20183 58001


Station Type Date Time Source
KDRT Decoded METAR 2022/05/24 11:53 UTC NOAA

DEL RIO INTERNATIONAL AIRPORT, TX, United States (KDRT) 29-22N 100-55W 313M
May 24, 2022 - 07:53 AM EDT / 2022.05.24 1153 UTC
Wind: from the ESE (110 degrees) at 7 MPH (6 KT):0
Visibility: 10 mile(s):0
Sky conditions: clear
Temperature: 66.0 F (18.9 C)
Dew Point: 64.0 F (17.8 C)
Relative Humidity: 93%
Pressure (altimeter): 29.73 in. Hg (1006 hPa)
Pressure tendency: 0.00 inches (0.1 hPa) lower than three hours ago
ob: KDRT 241153Z AUTO 11006KT 10SM CLR 19/18 A2973 RMK AO2 SLP060 70002 T01890178 10206 20183 58001
cycle: 12

Station Type Date Time Source
KDRT TAF 2022/05/24 12:22 UTC NOAA

TAF KDRT 241120Z 2412/2512 12007KT P6SM FEW050 BKN250
TEMPO 2412/2416 P6SM BKN022
FM241700 14012KT P6SM SCT040
FM250600 04011KT P6SM VCSH SCT100 PROB30 2506/2511 4SM TSRA BR BKN050CB

Example: see airport list